sensor_id;sensor_type;location;lat;lon;timestamp;pressure;altitude;pressure_sealevel;temperature;humidity
37648;BME280;23490;53.656;10.076;2022-07-29T00:01:31;55723.56;;;-145.95;71.63
37648;BME280;23490;53.656;10.076;2022-07-29T00:03:56;55703.16;;;-145.95;72.30
37648;BME280;23490;53.656;10.076;2022-07-29T00:06:21;55705.22;;;-145.95;71.68
37648;BME280;23490;53.656;10.076;2022-07-29T00:08:47;55699.09;;;-145.95;71.84
37648;BME280;23490;53.656;10.076;2022-07-29T00:11:12;55756.19;;;-145.95;72.59
37648;BME280;23490;53.656;10.076;2022-07-29T00:13:38;55743.94;;;-145.95;72.55
37648;BME280;23490;53.656;10.076;2022-07-29T00:16:04;55709.28;;;-145.95;72.72
37648;BME280;23490;53.656;10.076;2022-07-29T00:18:29;55682.78;;;-145.95;73.05
37648;BME280;23490;53.656;10.076;2022-07-29T00:20:54;55717.44;;;-145.95;73.18
37648;BME280;23490;53.656;10.076;2022-07-29T00:23:20;55739.88;;;-145.95;73.63
37648;BME280;23490;53.656;10.076;2022-07-29T00:25:45;55686.84;;;-145.95;73.39
37648;BME280;23490;53.656;10.076;2022-07-29T00:28:10;55703.16;;;-145.95;73.50
37648;BME280;23490;53.656;10.076;2022-07-29T00:30:35;55690.94;;;-145.95;73.63
37648;BME280;23490;53.656;10.076;2022-07-29T00:33:01;55650.16;;;-145.95;73.73
37648;BME280;23490;53.656;10.076;2022-07-29T00:35:26;55739.88;;;-145.95;74.00
37648;BME280;23490;53.656;10.076;2022-07-29T00:38:12;55686.84;;;-145.95;74.11
37648;BME280;23490;53.656;10.076;2022-07-29T00:40:38;55737.84;;;-145.95;74.13
37648;BME280;23490;53.656;10.076;2022-07-29T00:43:03;55719.47;;;-145.95;74.25
37648;BME280;23490;53.656;10.076;2022-07-29T00:45:29;55717.44;;;-145.95;74.25
37648;BME280;23490;53.656;10.076;2022-07-29T00:47:55;55690.94;;;-145.95;75.07
37648;BME280;23490;53.656;10.076;2022-07-29T00:50:20;55690.94;;;-145.95;74.99
37648;BME280;23490;53.656;10.076;2022-07-29T00:52:46;55764.34;;;-145.95;75.58
37648;BME280;23490;53.656;10.076;2022-07-29T00:55:13;55731.72;;;-145.95;75.95
37648;BME280;23490;53.656;10.076;2022-07-29T00:57:40;55682.78;;;-145.95;76.07
37648;BME280;23490;53.656;10.076;2022-07-29T01:00:09;55709.28;;;-145.95;75.65
37648;BME280;23490;53.656;10.076;2022-07-29T01:02:35;55682.78;;;-145.95;75.34
37648;BME280;23490;53.656;10.076;2022-07-29T01:05:02;55686.84;;;-145.95;75.36
37648;BME280;23490;53.656;10.076;2022-07-29T01:07:28;55711.31;;;-145.95;75.63
37648;BME280;23490;53.656;10.076;2022-07-29T01:09:54;55699.09;;;-145.95;75.52
37648;BME280;23490;53.656;10.076;2022-07-29T01:12:24;55715.41;;;-145.95;75.25
37648;BME280;23490;53.656;10.076;2022-07-29T01:14:50;55713.38;;;-145.95;74.87
37648;BME280;23490;53.656;10.076;2022-07-29T01:17:29;55721.53;;;-145.95;75.48
37648;BME280;23490;53.656;10.076;2022-07-29T01:20:13;55678.69;;;-145.95;75.54
37648;BME280;23490;53.656;10.076;2022-07-29T01:25:44;55711.31;;;-145.95;74.88
37648;BME280;23490;53.656;10.076;2022-07-29T01:31:02;55703.16;;;-145.95;74.23
37648;BME280;23490;53.656;10.076;2022-07-29T01:33:33;55713.38;;;-145.95;74.96
37648;BME280;23490;53.656;10.076;2022-07-29T01:36:22;55695.00;;;-145.95;75.83
37648;BME280;23490;53.656;10.076;2022-07-29T01:38:54;55654.22;;;-145.95;75.58
37648;BME280;23490;53.656;10.076;2022-07-29T01:41:24;55719.47;;;-145.95;76.24
37648;BME280;23490;53.656;10.076;2022-07-29T01:43:56;55719.47;;;-145.95;76.23
37648;BME280;23490;53.656;10.076;2022-07-29T01:46:31;55695.00;;;-145.95;76.24
37648;BME280;23490;53.656;10.076;2022-07-29T01:49:05;55695.00;;;-145.95;76.41
37648;BME280;23490;53.656;10.076;2022-07-29T01:51:36;55711.31;;;-145.95;76.94
37648;BME280;23490;53.656;10.076;2022-07-29T01:54:20;55713.38;;;-145.95;76.58
37648;BME280;23490;53.656;10.076;2022-07-29T01:56:50;55743.94;;;-145.95;76.24
37648;BME280;23490;53.656;10.076;2022-07-29T01:59:17;55707.25;;;-145.95;76.06
37648;BME280;23490;53.656;10.076;2022-07-29T02:01:45;55715.41;;;-145.95;75.82
37648;BME280;23490;53.656;10.076;2022-07-29T02:04:12;55682.78;;;-145.95;76.16
37648;BME280;23490;53.656;10.076;2022-07-29T02:06:41;55719.47;;;-145.95;76.75
37648;BME280;23490;53.656;10.076;2022-07-29T02:09:09;55705.22;;;-145.95;76.54
37648;BME280;23490;53.656;10.076;2022-07-29T02:11:37;55686.84;;;-145.95;75.65
37648;BME280;23490;53.656;10.076;2022-07-29T02:14:03;55678.69;;;-145.95;76.06
37648;BME280;23490;53.656;10.076;2022-07-29T02:16:30;55692.97;;;-145.95;75.96
37648;BME280;23490;53.656;10.076;2022-07-29T02:18:59;55711.31;;;-145.95;75.15
37648;BME280;23490;53.656;10.076;2022-07-29T02:21:26;55699.09;;;-145.95;75.34
37648;BME280;23490;53.656;10.076;2022-07-29T02:23:52;55674.63;;;-145.95;75.76
37648;BME280;23490;53.656;10.076;2022-07-29T02:26:20;55707.25;;;-145.95;76.24
37648;BME280;23490;53.656;10.076;2022-07-29T02:28:49;55692.97;;;-145.95;76.06
37648;BME280;23490;53.656;10.076;2022-07-29T02:31:16;55731.72;;;-145.95;76.44
37648;BME280;23490;53.656;10.076;2022-07-29T02:33:45;55692.97;;;-145.95;76.49
37648;BME280;23490;53.656;10.076;2022-07-29T02:36:11;55699.09;;;-145.95;76.04
37648;BME280;23490;53.656;10.076;2022-07-29T02:38:38;55682.78;;;-145.95;76.41
37648;BME280;23490;53.656;10.076;2022-07-29T02:41:18;55705.22;;;-145.95;77.51
37648;BME280;23490;53.656;10.076;2022-07-29T02:43:47;55690.94;;;-145.95;77.19
37648;BME280;23490;53.656;10.076;2022-07-29T02:46:18;55682.78;;;-145.95;77.94
37648;BME280;23490;53.656;10.076;2022-07-29T02:48:56;55715.41;;;-145.95;78.04
37648;BME280;23490;53.656;10.076;2022-07-29T02:51:25;55743.94;;;-145.95;77.26
37648;BME280;23490;53.656;10.076;2022-07-29T02:53:53;55735.78;;;-145.95;77.93
37648;BME280;23490;53.656;10.076;2022-07-29T02:56:27;55703.16;;;-145.95;76.39
37648;BME280;23490;53.656;10.076;2022-07-29T02:58:56;55674.63;;;-145.95;76.49
37648;BME280;23490;53.656;10.076;2022-07-29T03:01:23;55680.75;;;-145.95;76.61
37648;BME280;23490;53.656;10.076;2022-07-29T03:03:52;55662.38;;;-145.95;76.75
37648;BME280;23490;53.656;10.076;2022-07-29T03:06:20;55748.03;;;-145.95;77.65
37648;BME280;23490;53.656;10.076;2022-07-29T03:08:47;55699.09;;;-145.95;75.99
37648;BME280;23490;53.656;10.076;2022-07-29T03:11:14;55705.22;;;-145.95;77.31
37648;BME280;23490;53.656;10.076;2022-07-29T03:13:41;55727.63;;;-145.95;77.34
37648;BME280;23490;53.656;10.076;2022-07-29T03:16:07;55725.59;;;-145.95;76.79
37648;BME280;23490;53.656;10.076;2022-07-29T03:18:33;55733.75;;;-145.95;76.33
37648;BME280;23490;53.656;10.076;2022-07-29T03:20:59;55678.69;;;-145.95;75.93
37648;BME280;23490;53.656;10.076;2022-07-29T03:23:24;55699.09;;;-145.95;77.09
37648;BME280;23490;53.656;10.076;2022-07-29T03:25:53;55686.84;;;-145.95;76.91
37648;BME280;23490;53.656;10.076;2022-07-29T03:28:19;55715.41;;;-145.95;76.76
37648;BME280;23490;53.656;10.076;2022-07-29T03:30:45;55695.00;;;-145.95;77.02
37648;BME280;23490;53.656;10.076;2022-07-29T03:33:10;55723.56;;;-145.95;77.57
37648;BME280;23490;53.656;10.076;2022-07-29T03:35:35;55727.63;;;-145.95;77.88
37648;BME280;23490;53.656;10.076;2022-07-29T03:38:01;55674.63;;;-145.95;77.49
37648;BME280;23490;53.656;10.076;2022-07-29T03:40:37;55715.41;;;-145.95;76.65
37648;BME280;23490;53.656;10.076;2022-07-29T03:43:05;55686.84;;;-145.95;76.99
37648;BME280;23490;53.656;10.076;2022-07-29T03:45:32;55717.44;;;-145.95;75.98
37648;BME280;23490;53.656;10.076;2022-07-29T03:48:07;55678.69;;;-145.95;75.92
37648;BME280;23490;53.656;10.076;2022-07-29T03:50:34;55686.84;;;-145.95;75.34
37648;BME280;23490;53.656;10.076;2022-07-29T03:53:01;55688.91;;;-145.95;76.53
37648;BME280;23490;53.656;10.076;2022-07-29T03:55:29;55727.63;;;-145.95;77.49
37648;BME280;23490;53.656;10.076;2022-07-29T03:57:57;55731.72;;;-145.95;76.69
37648;BME280;23490;53.656;10.076;2022-07-29T04:00:24;55748.03;;;-145.95;76.83
37648;BME280;23490;53.656;10.076;2022-07-29T04:02:50;55699.09;;;-145.95;76.84
37648;BME280;23490;53.656;10.076;2022-07-29T04:05:18;55680.75;;;-145.95;77.38
37648;BME280;23490;53.656;10.076;2022-07-29T04:07:44;55709.28;;;-145.95;77.04
37648;BME280;23490;53.656;10.076;2022-07-29T04:10:10;55676.66;;;-145.95;77.03
37648;BME280;23490;53.656;10.076;2022-07-29T04:12:35;55727.63;;;-145.95;76.80
37648;BME280;23490;53.656;10.076;2022-07-29T04:15:02;55719.47;;;-145.95;76.60
37648;BME280;23490;53.656;10.076;2022-07-29T04:17:28;55727.63;;;-145.95;76.76
37648;BME280;23490;53.656;10.076;2022-07-29T04:19:53;55695.00;;;-145.95;76.56
37648;BME280;23490;53.656;10.076;2022-07-29T04:22:18;55719.47;;;-145.95;76.43
37648;BME280;23490;53.656;10.076;2022-07-29T04:24:44;55682.78;;;-145.95;77.44
37648;BME280;23490;53.656;10.076;2022-07-29T04:27:09;55723.56;;;-145.95;77.71
37648;BME280;23490;53.656;10.076;2022-07-29T04:29:35;55627.72;;;-145.95;76.70
37648;BME280;23490;53.656;10.076;2022-07-29T04:32:00;55690.94;;;-145.95;77.29
37648;BME280;23490;53.656;10.076;2022-07-29T04:34:25;55719.47;;;-145.95;77.55
37648;BME280;23490;53.656;10.076;2022-07-29T04:36:51;55690.94;;;-145.95;76.46
37648;BME280;23490;53.656;10.076;2022-07-29T04:39:16;55684.81;;;-145.95;77.28
37648;BME280;23490;53.656;10.076;2022-07-29T04:41:43;55743.94;;;-145.95;78.14
37648;BME280;23490;53.656;10.076;2022-07-29T04:44:08;55703.16;;;-145.95;77.13
37648;BME280;23490;53.656;10.076;2022-07-29T04:46:34;55721.53;;;-145.95;77.77
37648;BME280;23490;53.656;10.076;2022-07-29T04:49:00;55660.34;;;-145.95;78.09
37648;BME280;23490;53.656;10.076;2022-07-29T04:51:26;55682.78;;;-145.95;77.89
37648;BME280;23490;53.656;10.076;2022-07-29T04:53:51;55695.00;;;-145.95;77.31
37648;BME280;23490;53.656;10.076;2022-07-29T04:56:16;55715.41;;;-145.95;77.33
37648;BME280;23490;53.656;10.076;2022-07-29T04:58:42;55686.84;;;-145.95;77.24
37648;BME280;23490;53.656;10.076;2022-07-29T05:01:07;55715.41;;;-145.95;77.09
37648;BME280;23490;53.656;10.076;2022-07-29T05:03:32;55715.41;;;-145.95;76.74
37648;BME280;23490;53.656;10.076;2022-07-29T05:05:57;55676.66;;;-145.95;77.44
37648;BME280;23490;53.656;10.076;2022-07-29T05:08:23;55703.16;;;-145.95;77.26
37648;BME280;23490;53.656;10.076;2022-07-29T05:10:48;55697.06;;;-145.95;77.55
37648;BME280;23490;53.656;10.076;2022-07-29T05:13:13;55707.25;;;-145.95;76.42
37648;BME280;23490;53.656;10.076;2022-07-29T05:15:39;55715.41;;;-145.95;77.22
37648;BME280;23490;53.656;10.076;2022-07-29T05:18:04;55699.09;;;-145.95;75.76
37648;BME280;23490;53.656;10.076;2022-07-29T05:20:30;55729.69;;;-145.95;76.52
37648;BME280;23490;53.656;10.076;2022-07-29T05:22:57;55739.88;;;-145.95;76.40
37648;BME280;23490;53.656;10.076;2022-07-29T05:25:23;55699.09;;;-145.95;76.71
37648;BME280;23490;53.656;10.076;2022-07-29T05:27:49;55701.13;;;-145.95;76.92
37648;BME280;23490;53.656;10.076;2022-07-29T05:30:15;55711.31;;;-145.95;75.88
37648;BME280;23490;53.656;10.076;2022-07-29T05:32:40;55703.16;;;-145.95;76.66
37648;BME280;23490;53.656;10.076;2022-07-29T05:35:06;55727.63;;;-145.95;75.56
37648;BME280;23490;53.656;10.076;2022-07-29T05:37:31;55760.25;;;-145.95;76.06
37648;BME280;23490;53.656;10.076;2022-07-29T05:39:56;55750.06;;;-145.95;76.94
37648;BME280;23490;53.656;10.076;2022-07-29T05:42:22;55725.59;;;-145.95;76.74
37648;BME280;23490;53.656;10.076;2022-07-29T05:44:47;55743.94;;;-145.95;75.85
37648;BME280;23490;53.656;10.076;2022-07-29T05:47:13;55715.41;;;-145.95;76.39
37648;BME280;23490;53.656;10.076;2022-07-29T05:49:38;55746.00;;;-145.95;75.74
37648;BME280;23490;53.656;10.076;2022-07-29T05:52:04;55768.41;;;-145.95;76.04
37648;BME280;23490;53.656;10.076;2022-07-29T05:54:29;55735.78;;;-145.95;73.00
37648;BME280;23490;53.656;10.076;2022-07-29T05:56:54;55743.94;;;-145.95;73.17
37648;BME280;23490;53.656;10.076;2022-07-29T05:59:20;55715.41;;;-145.95;73.25
37648;BME280;23490;53.656;10.076;2022-07-29T06:01:46;55690.94;;;-145.95;73.43
37648;BME280;23490;53.656;10.076;2022-07-29T06:04:11;55725.59;;;-145.95;73.40
37648;BME280;23490;53.656;10.076;2022-07-29T06:06:36;55768.41;;;-145.95;74.15
37648;BME280;23490;53.656;10.076;2022-07-29T06:09:02;55760.25;;;-145.95;72.69
37648;BME280;23490;53.656;10.076;2022-07-29T06:11:28;55743.94;;;-145.95;73.10
37648;BME280;23490;53.656;10.076;2022-07-29T06:13:53;55729.69;;;-145.95;71.99
37648;BME280;23490;53.656;10.076;2022-07-29T06:16:19;55750.06;;;-145.95;71.95
37648;BME280;23490;53.656;10.076;2022-07-29T06:18:44;55739.88;;;-145.95;71.57
37648;BME280;23490;53.656;10.076;2022-07-29T06:21:10;55739.88;;;-145.95;72.22
37648;BME280;23490;53.656;10.076;2022-07-29T06:23:38;55748.03;;;-145.95;71.52
37648;BME280;23490;53.656;10.076;2022-07-29T06:26:05;55760.25;;;-145.95;72.54
37648;BME280;23490;53.656;10.076;2022-07-29T06:28:30;55760.25;;;-145.95;70.92
37648;BME280;23490;53.656;10.076;2022-07-29T06:30:56;55760.25;;;-145.95;70.12
37648;BME280;23490;53.656;10.076;2022-07-29T06:33:21;55762.31;;;-145.95;70.60
37648;BME280;23490;53.656;10.076;2022-07-29T06:35:46;55731.72;;;-145.95;71.26
37648;BME280;23490;53.656;10.076;2022-07-29T06:38:13;55752.09;;;-145.95;70.20
37648;BME280;23490;53.656;10.076;2022-07-29T06:40:42;55752.09;;;-145.95;69.75
37648;BME280;23490;53.656;10.076;2022-07-29T06:43:37;55735.78;;;-145.95;69.35
37648;BME280;23490;53.656;10.076;2022-07-29T06:46:08;55780.66;;;-145.95;68.05
37648;BME280;23490;53.656;10.076;2022-07-29T06:48:34;55723.56;;;-145.95;68.73
37648;BME280;23490;53.656;10.076;2022-07-29T06:51:01;55735.78;;;-145.95;68.63
37648;BME280;23490;53.656;10.076;2022-07-29T06:53:27;55796.97;;;-145.95;67.93
37648;BME280;23490;53.656;10.076;2022-07-29T06:55:53;55723.56;;;-145.95;65.27
37648;BME280;23490;53.656;10.076;2022-07-29T06:58:18;55780.66;;;-145.95;66.77
37648;BME280;23490;53.656;10.076;2022-07-29T07:00:46;55776.56;;;-145.95;67.24
37648;BME280;23490;53.656;10.076;2022-07-29T07:03:12;55782.69;;;-145.95;66.43
37648;BME280;23490;53.656;10.076;2022-07-29T07:05:37;55762.31;;;-145.95;65.94
37648;BME280;23490;53.656;10.076;2022-07-29T07:08:03;55805.13;;;-145.95;64.46
37648;BME280;23490;53.656;10.076;2022-07-29T07:10:28;55735.78;;;-145.95;62.31
37648;BME280;23490;53.656;10.076;2022-07-29T07:12:54;55758.22;;;-145.95;64.92
37648;BME280;23490;53.656;10.076;2022-07-29T07:15:20;55792.88;;;-145.95;65.05
37648;BME280;23490;53.656;10.076;2022-07-29T07:17:48;55805.13;;;-145.95;63.21
37648;BME280;23490;53.656;10.076;2022-07-29T07:20:14;55784.72;;;-145.95;61.60
37648;BME280;23490;53.656;10.076;2022-07-29T07:22:39;55776.56;;;-145.95;63.42
37648;BME280;23490;53.656;10.076;2022-07-29T07:25:05;55837.75;;;-145.95;63.51
37648;BME280;23490;53.656;10.076;2022-07-29T07:27:31;55805.13;;;-145.95;62.76
37648;BME280;23490;53.656;10.076;2022-07-29T07:29:56;55772.50;;;-145.95;61.29
37648;BME280;23490;53.656;10.076;2022-07-29T07:32:22;55772.50;;;-145.95;62.70
37648;BME280;23490;53.656;10.076;2022-07-29T07:34:47;55776.56;;;-145.95;60.25
37648;BME280;23490;53.656;10.076;2022-07-29T07:37:12;55772.50;;;-145.95;61.59
37648;BME280;23490;53.656;10.076;2022-07-29T07:39:39;55805.13;;;-145.95;61.13
37648;BME280;23490;53.656;10.076;2022-07-29T07:42:05;55833.66;;;-145.95;59.77
37648;BME280;23490;53.656;10.076;2022-07-29T07:44:30;55739.88;;;-145.95;59.82
37648;BME280;23490;53.656;10.076;2022-07-29T07:46:55;55768.41;;;-145.95;59.96
37648;BME280;23490;53.656;10.076;2022-07-29T07:49:20;55788.81;;;-145.95;59.12
37648;BME280;23490;53.656;10.076;2022-07-29T07:51:46;55799.00;;;-145.95;59.25
37648;BME280;23490;53.656;10.076;2022-07-29T07:54:11;55790.84;;;-145.95;59.72
37648;BME280;23490;53.656;10.076;2022-07-29T07:56:36;55764.34;;;-145.95;58.17
37648;BME280;23490;53.656;10.076;2022-07-29T07:59:02;55768.41;;;-145.95;59.58
37648;BME280;23490;53.656;10.076;2022-07-29T08:01:27;55780.66;;;-145.95;58.15
37648;BME280;23490;53.656;10.076;2022-07-29T08:03:52;55772.50;;;-145.95;58.69
37648;BME280;23490;53.656;10.076;2022-07-29T08:06:18;55827.56;;;-145.95;57.41
37648;BME280;23490;53.656;10.076;2022-07-29T08:08:43;55809.19;;;-145.95;57.34
37648;BME280;23490;53.656;10.076;2022-07-29T08:11:08;55782.69;;;-145.95;58.27
37648;BME280;23490;53.656;10.076;2022-07-29T08:13:34;55788.81;;;-145.95;58.79
37648;BME280;23490;53.656;10.076;2022-07-29T08:15:59;55776.56;;;-145.95;59.61
37648;BME280;23490;53.656;10.076;2022-07-29T08:18:27;55796.97;;;-145.95;58.77
37648;BME280;23490;53.656;10.076;2022-07-29T08:20:53;55819.41;;;-145.95;59.22
37648;BME280;23490;53.656;10.076;2022-07-29T08:23:19;55780.66;;;-145.95;58.58
37648;BME280;23490;53.656;10.076;2022-07-29T08:25:44;55825.53;;;-145.95;58.74
37648;BME280;23490;53.656;10.076;2022-07-29T08:28:10;55807.16;;;-145.95;57.54
37648;BME280;23490;53.656;10.076;2022-07-29T08:30:35;55809.19;;;-145.95;54.85
37648;BME280;23490;53.656;10.076;2022-07-29T08:33:01;55807.16;;;-145.95;56.66
37648;BME280;23490;53.656;10.076;2022-07-29T08:35:27;55784.72;;;-145.95;57.22
37648;BME280;23490;53.656;10.076;2022-07-29T08:37:53;55817.34;;;-145.95;53.62
37648;BME280;23490;53.656;10.076;2022-07-29T08:40:19;55817.34;;;-145.95;54.80
37648;BME280;23490;53.656;10.076;2022-07-29T08:42:45;55845.91;;;-145.95;54.27
37648;BME280;23490;53.656;10.076;2022-07-29T08:45:11;55792.88;;;-145.95;53.55
37648;BME280;23490;53.656;10.076;2022-07-29T08:47:38;55841.84;;;-145.95;53.52
37648;BME280;23490;53.656;10.076;2022-07-29T08:50:08;55817.34;;;-145.95;52.31
37648;BME280;23490;53.656;10.076;2022-07-29T08:52:39;55866.31;;;-145.95;52.54
37648;BME280;23490;53.656;10.076;2022-07-29T08:55:06;55829.59;;;-145.95;52.41
37648;BME280;23490;53.656;10.076;2022-07-29T08:57:33;55805.13;;;-145.95;49.78
37648;BME280;23490;53.656;10.076;2022-07-29T09:00:00;55825.53;;;-145.95;51.27
37648;BME280;23490;53.656;10.076;2022-07-29T09:02:28;55882.63;;;-145.95;50.24
37648;BME280;23490;53.656;10.076;2022-07-29T09:04:55;55862.22;;;-145.95;48.48
37648;BME280;23490;53.656;10.076;2022-07-29T09:07:21;55825.53;;;-145.95;48.68
37648;BME280;23490;53.656;10.076;2022-07-29T09:09:47;55833.66;;;-145.95;49.25
37648;BME280;23490;53.656;10.076;2022-07-29T09:12:12;55864.25;;;-145.95;47.86
37648;BME280;23490;53.656;10.076;2022-07-29T09:14:38;55819.41;;;-145.95;48.71
37648;BME280;23490;53.656;10.076;2022-07-29T09:17:04;55821.44;;;-145.95;47.82
37648;BME280;23490;53.656;10.076;2022-07-29T09:19:33;55845.91;;;-145.95;45.99
37648;BME280;23490;53.656;10.076;2022-07-29T09:22:02;55858.16;;;-145.95;46.90
37648;BME280;23490;53.656;10.076;2022-07-29T09:24:38;55866.31;;;-145.95;45.54
37648;BME280;23490;53.656;10.076;2022-07-29T09:27:12;55845.91;;;-145.95;46.86
37648;BME280;23490;53.656;10.076;2022-07-29T09:29:43;55870.38;;;-145.95;44.94
37648;BME280;23490;53.656;10.076;2022-07-29T09:32:09;55858.16;;;-145.95;46.42
37648;BME280;23490;53.656;10.076;2022-07-29T09:34:36;55882.63;;;-145.95;44.16
37648;BME280;23490;53.656;10.076;2022-07-29T09:37:02;55856.09;;;-145.95;43.92
37648;BME280;23490;53.656;10.076;2022-07-29T09:39:31;55898.94;;;-145.95;45.14
37648;BME280;23490;53.656;10.076;2022-07-29T09:41:59;55862.22;;;-145.95;45.64
37648;BME280;23490;53.656;10.076;2022-07-29T09:44:25;55886.69;;;-145.95;44.61
37648;BME280;23490;53.656;10.076;2022-07-29T09:49:23;55874.47;;;-145.95;44.46
37648;BME280;23490;53.656;10.076;2022-07-29T09:52:00;55878.53;;;-145.95;45.56
37648;BME280;23490;53.656;10.076;2022-07-29T09:54:26;55862.22;;;-145.95;43.21
37648;BME280;23490;53.656;10.076;2022-07-29T09:56:53;55888.72;;;-145.95;42.23
37648;BME280;23490;53.656;10.076;2022-07-29T09:59:19;55829.59;;;-145.95;41.71
37648;BME280;23490;53.656;10.076;2022-07-29T10:01:51;55860.19;;;-145.95;44.38
37648;BME280;23490;53.656;10.076;2022-07-29T10:04:18;55841.84;;;-145.95;46.40
37648;BME280;23490;53.656;10.076;2022-07-29T10:10:42;55837.75;;;-145.95;44.04
37648;BME280;23490;53.656;10.076;2022-07-29T10:13:12;55854.06;;;-145.95;42.45
37648;BME280;23490;53.656;10.076;2022-07-29T10:15:40;55874.47;;;-145.95;42.30
37648;BME280;23490;53.656;10.076;2022-07-29T10:18:13;55874.47;;;-145.95;42.05
37648;BME280;23490;53.656;10.076;2022-07-29T10:20:39;55858.16;;;-145.95;41.97
37648;BME280;23490;53.656;10.076;2022-07-29T10:23:05;55850.00;;;-145.95;41.15
37648;BME280;23490;53.656;10.076;2022-07-29T10:25:30;55845.91;;;-145.95;41.63
37648;BME280;23490;53.656;10.076;2022-07-29T10:27:57;55827.56;;;-145.95;40.85
37648;BME280;23490;53.656;10.076;2022-07-29T10:30:24;55886.69;;;-145.95;40.74
37648;BME280;23490;53.656;10.076;2022-07-29T10:33:08;55878.53;;;-145.95;41.72
37648;BME280;23490;53.656;10.076;2022-07-29T10:41:11;55858.16;;;-145.95;41.71
37648;BME280;23490;53.656;10.076;2022-07-29T10:46:54;55809.19;;;-145.95;42.38
37648;BME280;23490;53.656;10.076;2022-07-29T10:49:21;55854.06;;;-145.95;43.13
37648;BME280;23490;53.656;10.076;2022-07-29T10:54:15;55831.63;;;-145.95;42.18
37648;BME280;23490;53.656;10.076;2022-07-29T10:56:41;55837.75;;;-145.95;43.93
37648;BME280;23490;53.656;10.076;2022-07-29T11:01:53;55825.53;;;-145.95;43.68
37648;BME280;23490;53.656;10.076;2022-07-29T11:07:10;55847.94;;;-145.95;43.08
37648;BME280;23490;53.656;10.076;2022-07-29T11:09:35;55833.66;;;-145.95;42.78
37648;BME280;23490;53.656;10.076;2022-07-29T11:12:01;55888.72;;;-145.95;43.96
37648;BME280;23490;53.656;10.076;2022-07-29T11:14:55;55858.16;;;-145.95;41.64
37648;BME280;23490;53.656;10.076;2022-07-29T11:17:20;55862.22;;;-145.95;42.20
37648;BME280;23490;53.656;10.076;2022-07-29T11:19:46;55854.06;;;-145.95;41.86
37648;BME280;23490;53.656;10.076;2022-07-29T11:22:31;55845.91;;;-145.95;44.35
37648;BME280;23490;53.656;10.076;2022-07-29T11:25:13;55833.66;;;-145.95;44.11
37648;BME280;23490;53.656;10.076;2022-07-29T11:27:38;55841.84;;;-145.95;42.35
37648;BME280;23490;53.656;10.076;2022-07-29T11:30:05;55884.66;;;-145.95;43.54
37648;BME280;23490;53.656;10.076;2022-07-29T11:32:41;55839.78;;;-145.95;41.20
37648;BME280;23490;53.656;10.076;2022-07-29T11:35:17;55825.53;;;-145.95;41.00
37648;BME280;23490;53.656;10.076;2022-07-29T11:37:44;55837.75;;;-145.95;40.52
37648;BME280;23490;53.656;10.076;2022-07-29T11:40:11;55856.09;;;-145.95;40.24
37648;BME280;23490;53.656;10.076;2022-07-29T11:42:38;55858.16;;;-145.95;41.32
37648;BME280;23490;53.656;10.076;2022-07-29T11:45:09;55827.56;;;-145.95;40.22
37648;BME280;23490;53.656;10.076;2022-07-29T11:47:39;55886.69;;;-145.95;39.97
37648;BME280;23490;53.656;10.076;2022-07-29T11:50:12;55872.41;;;-145.95;40.52
37648;BME280;23490;53.656;10.076;2022-07-29T11:52:42;55892.81;;;-145.95;38.51
37648;BME280;23490;53.656;10.076;2022-07-29T11:55:20;55866.31;;;-145.95;37.39
37648;BME280;23490;53.656;10.076;2022-07-29T11:57:49;55829.59;;;-145.95;37.19
37648;BME280;23490;53.656;10.076;2022-07-29T12:02:52;55896.88;;;-145.95;37.43
37648;BME280;23490;53.656;10.076;2022-07-29T12:05:18;55913.19;;;-145.95;37.99
37648;BME280;23490;53.656;10.076;2022-07-29T12:07:44;55845.91;;;-145.95;36.44
37648;BME280;23490;53.656;10.076;2022-07-29T12:10:09;55847.94;;;-145.95;36.89
37648;BME280;23490;53.656;10.076;2022-07-29T12:12:35;55845.91;;;-145.95;38.76
37648;BME280;23490;53.656;10.076;2022-07-29T12:15:17;55874.47;;;-145.95;38.04
37648;BME280;23490;53.656;10.076;2022-07-29T12:17:45;55886.69;;;-145.95;37.75
37648;BME280;23490;53.656;10.076;2022-07-29T12:20:10;55882.63;;;-145.95;38.59
37648;BME280;23490;53.656;10.076;2022-07-29T12:22:40;55882.63;;;-145.95;37.21
37648;BME280;23490;53.656;10.076;2022-07-29T12:25:12;55854.06;;;-145.95;37.72
37648;BME280;23490;53.656;10.076;2022-07-29T12:27:39;55890.78;;;-145.95;38.84
37648;BME280;23490;53.656;10.076;2022-07-29T12:30:10;55866.31;;;-145.95;38.46
37648;BME280;23490;53.656;10.076;2022-07-29T12:32:38;55850.00;;;-145.95;35.85
37648;BME280;23490;53.656;10.076;2022-07-29T12:35:06;55915.25;;;-145.95;35.79
37648;BME280;23490;53.656;10.076;2022-07-29T12:37:34;55898.94;;;-145.95;37.42
37648;BME280;23490;53.656;10.076;2022-07-29T12:40:01;55943.78;;;-145.95;34.75
37648;BME280;23490;53.656;10.076;2022-07-29T12:42:26;55874.47;;;-145.95;35.85
37648;BME280;23490;53.656;10.076;2022-07-29T12:44:52;55874.47;;;-145.95;38.43
37648;BME280;23490;53.656;10.076;2022-07-29T12:47:18;55884.66;;;-145.95;38.67
37648;BME280;23490;53.656;10.076;2022-07-29T12:49:45;55896.88;;;-145.95;37.18
37648;BME280;23490;53.656;10.076;2022-07-29T12:52:23;55884.66;;;-145.95;38.99
37648;BME280;23490;53.656;10.076;2022-07-29T12:54:49;55886.69;;;-145.95;38.31
37648;BME280;23490;53.656;10.076;2022-07-29T12:57:14;55898.94;;;-145.95;39.33
37648;BME280;23490;53.656;10.076;2022-07-29T12:59:39;55872.41;;;-145.95;39.47
37648;BME280;23490;53.656;10.076;2022-07-29T13:02:05;55850.00;;;-145.95;40.66
37648;BME280;23490;53.656;10.076;2022-07-29T13:04:33;55890.78;;;-145.95;40.85